sensor_id;sensor_type;location;lat;lon;timestamp;P1;durP1;ratioP1;P2;durP2;ratioP2
41466;SDS011;27205;53.690;19.948;2022-09-24T00:01:19;5.30;;;4.20;;
41466;SDS011;27205;53.690;19.948;2022-09-24T00:06:25;4.60;;;4.20;;
41466;SDS011;27205;53.690;19.948;2022-09-24T00:11:29;4.70;;;4.30;;
41466;SDS011;27205;53.690;19.948;2022-09-24T00:21:37;4.30;;;3.90;;
41466;SDS011;27205;53.690;19.948;2022-09-24T00:26:42;4.10;;;3.70;;
41466;SDS011;27205;53.690;19.948;2022-09-24T00:31:51;3.90;;;3.60;;
41466;SDS011;27205;53.690;19.948;2022-09-24T00:36:55;3.10;;;2.90;;
41466;SDS011;27205;53.690;19.948;2022-09-24T00:41:59;3.60;;;2.90;;
41466;SDS011;27205;53.690;19.948;2022-09-24T00:47:02;3.20;;;3.00;;
41466;SDS011;27205;53.690;19.948;2022-09-24T00:52:07;3.30;;;3.00;;
41466;SDS011;27205;53.690;19.948;2022-09-24T00:57:12;3.40;;;3.10;;
41466;SDS011;27205;53.690;19.948;2022-09-24T01:02:16;4.00;;;2.90;;
41466;SDS011;27205;53.690;19.948;2022-09-24T01:07:20;3.00;;;2.80;;
41466;SDS011;27205;53.690;19.948;2022-09-24T01:34:12;3.20;;;2.90;;
41466;SDS011;27205;53.690;19.948;2022-09-24T01:39:19;2.90;;;2.70;;
41466;SDS011;27205;53.690;19.948;2022-09-24T01:49:27;2.80;;;2.60;;
41466;SDS011;27205;53.690;19.948;2022-09-24T01:54:33;4.00;;;3.10;;
41466;SDS011;27205;53.690;19.948;2022-09-24T01:59:41;4.00;;;3.70;;
41466;SDS011;27205;53.690;19.948;2022-09-24T02:04:50;4.20;;;3.90;;
41466;SDS011;27205;53.690;19.948;2022-09-24T02:10:01;3.40;;;3.20;;
41466;SDS011;27205;53.690;19.948;2022-09-24T02:20:18;3.70;;;3.40;;
41466;SDS011;27205;53.690;19.948;2022-09-24T02:25:36;3.50;;;3.20;;
41466;SDS011;27205;53.690;19.948;2022-09-24T02:30:46;4.00;;;3.60;;
41466;SDS011;27205;53.690;19.948;2022-09-24T02:35:53;5.20;;;4.70;;
41466;SDS011;27205;53.690;19.948;2022-09-24T02:40:57;6.40;;;4.10;;
41466;SDS011;27205;53.690;19.948;2022-09-24T02:46:01;5.50;;;4.80;;
41466;SDS011;27205;53.690;19.948;2022-09-24T02:51:04;3.70;;;3.40;;
41466;SDS011;27205;53.690;19.948;2022-09-24T02:56:08;4.20;;;3.70;;
41466;SDS011;27205;53.690;19.948;2022-09-24T03:01:13;4.30;;;3.90;;
41466;SDS011;27205;53.690;19.948;2022-09-24T03:06:16;4.40;;;4.00;;
41466;SDS011;27205;53.690;19.948;2022-09-24T03:11:20;3.20;;;2.90;;
41466;SDS011;27205;53.690;19.948;2022-09-24T03:16:24;5.30;;;2.80;;
41466;SDS011;27205;53.690;19.948;2022-09-24T03:21:28;4.80;;;3.30;;
41466;SDS011;27205;53.690;19.948;2022-09-24T03:26:32;3.40;;;3.10;;
41466;SDS011;27205;53.690;19.948;2022-09-24T03:31:36;4.10;;;3.20;;
41466;SDS011;27205;53.690;19.948;2022-09-24T03:36:39;2.70;;;2.40;;
41466;SDS011;27205;53.690;19.948;2022-09-24T03:41:43;2.90;;;2.70;;
41466;SDS011;27205;53.690;19.948;2022-09-24T03:46:46;3.70;;;3.20;;
41466;SDS011;27205;53.690;19.948;2022-09-24T03:51:50;4.00;;;3.00;;
41466;SDS011;27205;53.690;19.948;2022-09-24T03:56:53;4.50;;;4.20;;
41466;SDS011;27205;53.690;19.948;2022-09-24T04:01:56;3.70;;;3.40;;
41466;SDS011;27205;53.690;19.948;2022-09-24T04:07:00;4.40;;;3.40;;
41466;SDS011;27205;53.690;19.948;2022-09-24T04:12:04;5.20;;;3.20;;
41466;SDS011;27205;53.690;19.948;2022-09-24T04:17:08;6.80;;;6.10;;
41466;SDS011;27205;53.690;19.948;2022-09-24T04:22:12;5.90;;;5.40;;
41466;SDS011;27205;53.690;19.948;2022-09-24T04:27:15;4.30;;;3.90;;
41466;SDS011;27205;53.690;19.948;2022-09-24T04:32:19;4.90;;;4.50;;
41466;SDS011;27205;53.690;19.948;2022-09-24T04:37:22;6.10;;;5.60;;
41466;SDS011;27205;53.690;19.948;2022-09-24T04:42:25;7.10;;;6.30;;
41466;SDS011;27205;53.690;19.948;2022-09-24T04:47:29;3.60;;;3.30;;
41466;SDS011;27205;53.690;19.948;2022-09-24T04:52:32;4.60;;;2.90;;
41466;SDS011;27205;53.690;19.948;2022-09-24T04:57:36;2.90;;;2.70;;
41466;SDS011;27205;53.690;19.948;2022-09-24T05:02:39;3.00;;;2.80;;
41466;SDS011;27205;53.690;19.948;2022-09-24T05:07:43;2.30;;;2.10;;
41466;SDS011;27205;53.690;19.948;2022-09-24T05:12:47;2.70;;;2.50;;
41466;SDS011;27205;53.690;19.948;2022-09-24T05:17:50;3.10;;;2.90;;
41466;SDS011;27205;53.690;19.948;2022-09-24T05:22:54;3.80;;;2.60;;
41466;SDS011;27205;53.690;19.948;2022-09-24T05:33:01;4.30;;;3.90;;
41466;SDS011;27205;53.690;19.948;2022-09-24T05:38:05;5.70;;;5.20;;
41466;SDS011;27205;53.690;19.948;2022-09-24T05:43:08;5.20;;;4.70;;
41466;SDS011;27205;53.690;19.948;2022-09-24T05:48:11;4.00;;;3.70;;
41466;SDS011;27205;53.690;19.948;2022-09-24T05:53:15;3.20;;;3.00;;
41466;SDS011;27205;53.690;19.948;2022-09-24T05:58:18;2.40;;;2.30;;
41466;SDS011;27205;53.690;19.948;2022-09-24T06:03:22;3.30;;;2.90;;
41466;SDS011;27205;53.690;19.948;2022-09-24T06:08:26;6.40;;;5.70;;
41466;SDS011;27205;53.690;19.948;2022-09-24T06:13:31;5.20;;;4.50;;
41466;SDS011;27205;53.690;19.948;2022-09-24T06:18:37;5.50;;;5.00;;
41466;SDS011;27205;53.690;19.948;2022-09-24T06:23:42;6.00;;;5.50;;
41466;SDS011;27205;53.690;19.948;2022-09-24T06:28:49;5.50;;;5.00;;
41466;SDS011;27205;53.690;19.948;2022-09-24T06:33:52;5.10;;;4.70;;
41466;SDS011;27205;53.690;19.948;2022-09-24T06:38:55;5.10;;;4.70;;
41466;SDS011;27205;53.690;19.948;2022-09-24T06:44:01;6.70;;;6.10;;
41466;SDS011;27205;53.690;19.948;2022-09-24T06:49:04;6.90;;;6.30;;
41466;SDS011;27205;53.690;19.948;2022-09-24T06:54:08;5.60;;;5.10;;
41466;SDS011;27205;53.690;19.948;2022-09-24T06:59:12;4.30;;;4.10;;
41466;SDS011;27205;53.690;19.948;2022-09-24T07:04:15;4.80;;;4.40;;
41466;SDS011;27205;53.690;19.948;2022-09-24T07:09:18;3.40;;;3.00;;
41466;SDS011;27205;53.690;19.948;2022-09-24T07:14:22;4.60;;;3.90;;
41466;SDS011;27205;53.690;19.948;2022-09-24T07:19:25;5.10;;;4.00;;
41466;SDS011;27205;53.690;19.948;2022-09-24T07:24:28;3.50;;;3.20;;
41466;SDS011;27205;53.690;19.948;2022-09-24T07:29:32;4.60;;;3.00;;
41466;SDS011;27205;53.690;19.948;2022-09-24T07:34:35;2.50;;;2.30;;
41466;SDS011;27205;53.690;19.948;2022-09-24T07:39:39;2.10;;;2.00;;
41466;SDS011;27205;53.690;19.948;2022-09-24T07:44:42;2.50;;;1.80;;
41466;SDS011;27205;53.690;19.948;2022-09-24T07:49:47;2.00;;;1.70;;
41466;SDS011;27205;53.690;19.948;2022-09-24T07:54:51;2.10;;;2.00;;
41466;SDS011;27205;53.690;19.948;2022-09-24T07:59:56;2.90;;;2.20;;
41466;SDS011;27205;53.690;19.948;2022-09-24T08:04:59;4.00;;;2.40;;
41466;SDS011;27205;53.690;19.948;2022-09-24T08:10:04;2.40;;;2.20;;
41466;SDS011;27205;53.690;19.948;2022-09-24T08:20:11;2.30;;;1.70;;
41466;SDS011;27205;53.690;19.948;2022-09-24T08:25:14;2.00;;;1.90;;
41466;SDS011;27205;53.690;19.948;2022-09-24T08:30:18;2.60;;;1.90;;
41466;SDS011;27205;53.690;19.948;2022-09-24T08:35:23;1.60;;;1.50;;
41466;SDS011;27205;53.690;19.948;2022-09-24T08:40:28;1.50;;;1.40;;
41466;SDS011;27205;53.690;19.948;2022-09-24T08:45:45;2.10;;;2.00;;
41466;SDS011;27205;53.690;19.948;2022-09-24T08:51:14;3.60;;;1.90;;
41466;SDS011;27205;53.690;19.948;2022-09-24T08:56:24;2.50;;;2.00;;
41466;SDS011;27205;53.690;19.948;2022-09-24T09:01:54;2.00;;;1.90;;
41466;SDS011;27205;53.690;19.948;2022-09-24T09:23:04;1.30;;;1.20;;
41466;SDS011;27205;53.690;19.948;2022-09-24T09:28:17;1.90;;;1.30;;
41466;SDS011;27205;53.690;19.948;2022-09-24T09:44:20;2.10;;;1.40;;
41466;SDS011;27205;53.690;19.948;2022-09-24T09:49:30;2.10;;;0.90;;
41466;SDS011;27205;53.690;19.948;2022-09-24T09:54:38;1.50;;;1.10;;
41466;SDS011;27205;53.690;19.948;2022-09-24T09:59:47;2.50;;;1.20;;
41466;SDS011;27205;53.690;19.948;2022-09-24T10:05:17;1.40;;;1.00;;
41466;SDS011;27205;53.690;19.948;2022-09-24T10:10:29;1.70;;;0.90;;
41466;SDS011;27205;53.690;19.948;2022-09-24T10:15:32;1.90;;;1.50;;
41466;SDS011;27205;53.690;19.948;2022-09-24T10:20:35;0.90;;;0.80;;
41466;SDS011;27205;53.690;19.948;2022-09-24T10:25:39;1.00;;;1.00;;
41466;SDS011;27205;53.690;19.948;2022-09-24T10:30:50;2.20;;;1.30;;
41466;SDS011;27205;53.690;19.948;2022-09-24T10:36:14;1.40;;;1.00;;
41466;SDS011;27205;53.690;19.948;2022-09-24T10:41:26;0.70;;;0.60;;
41466;SDS011;27205;53.690;19.948;2022-09-24T10:56:57;1.20;;;1.00;;
41466;SDS011;27205;53.690;19.948;2022-09-24T11:28:57;0.90;;;0.90;;
41466;SDS011;27205;53.690;19.948;2022-09-24T11:34:13;0.80;;;0.80;;
41466;SDS011;27205;53.690;19.948;2022-09-24T11:49:57;1.40;;;1.10;;
41466;SDS011;27205;53.690;19.948;2022-09-24T12:00:22;1.00;;;0.80;;
41466;SDS011;27205;53.690;19.948;2022-09-24T12:05:37;1.80;;;1.10;;
41466;SDS011;27205;53.690;19.948;2022-09-24T12:16:05;2.00;;;1.20;;
41466;SDS011;27205;53.690;19.948;2022-09-24T12:21:35;0.70;;;0.70;;
41466;SDS011;27205;53.690;19.948;2022-09-24T12:26:43;1.00;;;0.90;;
41466;SDS011;27205;53.690;19.948;2022-09-24T12:31:53;0.90;;;0.80;;
41466;SDS011;27205;53.690;19.948;2022-09-24T12:37:27;1.20;;;1.10;;
41466;SDS011;27205;53.690;19.948;2022-09-24T12:42:38;0.80;;;0.60;;
41466;SDS011;27205;53.690;19.948;2022-09-24T12:47:51;1.00;;;0.70;;
41466;SDS011;27205;53.690;19.948;2022-09-24T12:52:59;2.10;;;0.80;;
41466;SDS011;27205;53.690;19.948;2022-09-24T13:03:33;1.10;;;1.00;;
41466;SDS011;27205;53.690;19.948;2022-09-24T13:08:47;1.90;;;1.10;;
41466;SDS011;27205;53.690;19.948;2022-09-24T13:19:36;0.60;;;0.60;;
41466;SDS011;27205;53.690;19.948;2022-09-24T13:24:47;1.20;;;1.10;;
41466;SDS011;27205;53.690;19.948;2022-09-24T13:35:13;2.00;;;1.00;;
41466;SDS011;27205;53.690;19.948;2022-09-24T13:40:25;1.70;;;1.20;;
41466;SDS011;27205;53.690;19.948;2022-09-24T13:45:33;1.50;;;1.40;;
41466;SDS011;27205;53.690;19.948;2022-09-24T13:50:44;1.00;;;1.00;;
41466;SDS011;27205;53.690;19.948;2022-09-24T13:55:53;1.30;;;1.20;;
41466;SDS011;27205;53.690;19.948;2022-09-24T14:01:01;1.60;;;1.50;;
41466;SDS011;27205;53.690;19.948;2022-09-24T14:11:21;1.80;;;1.70;;
41466;SDS011;27205;53.690;19.948;2022-09-24T14:16:28;1.90;;;1.40;;
41466;SDS011;27205;53.690;19.948;2022-09-24T14:21:42;1.60;;;1.50;;
41466;SDS011;27205;53.690;19.948;2022-09-24T14:26:56;1.30;;;1.10;;
41466;SDS011;27205;53.690;19.948;2022-09-24T14:37:26;1.60;;;1.50;;
41466;SDS011;27205;53.690;19.948;2022-09-24T14:42:38;1.20;;;1.20;;
41466;SDS011;27205;53.690;19.948;2022-09-24T14:48:02;1.40;;;1.30;;
41466;SDS011;27205;53.690;19.948;2022-09-24T14:53:12;3.20;;;1.60;;
41466;SDS011;27205;53.690;19.948;2022-09-24T15:03:38;2.10;;;1.60;;
41466;SDS011;27205;53.690;19.948;2022-09-24T15:09:14;1.20;;;1.10;;
41466;SDS011;27205;53.690;19.948;2022-09-24T15:14:31;1.70;;;1.50;;
41466;SDS011;27205;53.690;19.948;2022-09-24T15:19:35;1.50;;;1.40;;
41466;SDS011;27205;53.690;19.948;2022-09-24T15:24:42;4.30;;;2.10;;
41466;SDS011;27205;53.690;19.948;2022-09-24T15:29:45;7.70;;;4.60;;
41466;SDS011;27205;53.690;19.948;2022-09-24T15:34:49;4.80;;;3.90;;
41466;SDS011;27205;53.690;19.948;2022-09-24T15:39:55;3.60;;;2.50;;
41466;SDS011;27205;53.690;19.948;2022-09-24T15:45:00;3.80;;;2.30;;
41466;SDS011;27205;53.690;19.948;2022-09-24T15:50:04;3.60;;;1.70;;
41466;SDS011;27205;53.690;19.948;2022-09-24T15:55:11;3.20;;;2.10;;
41466;SDS011;27205;53.690;19.948;2022-09-24T16:00:18;2.60;;;2.00;;
41466;SDS011;27205;53.690;19.948;2022-09-24T16:05:24;5.00;;;2.30;;
41466;SDS011;27205;53.690;19.948;2022-09-24T16:10:27;8.70;;;2.80;;
41466;SDS011;27205;53.690;19.948;2022-09-24T16:15:31;3.40;;;2.50;;
41466;SDS011;27205;53.690;19.948;2022-09-24T16:20:36;5.70;;;2.40;;
41466;SDS011;27205;53.690;19.948;2022-09-24T16:25:42;4.90;;;2.50;;
41466;SDS011;27205;53.690;19.948;2022-09-24T16:31:03;6.00;;;2.70;;
41466;SDS011;27205;53.690;19.948;2022-09-24T16:36:10;4.80;;;2.40;;
41466;SDS011;27205;53.690;19.948;2022-09-24T16:41:14;2.70;;;2.40;;
41466;SDS011;27205;53.690;19.948;2022-09-24T16:46:18;4.30;;;2.80;;
41466;SDS011;27205;53.690;19.948;2022-09-24T16:51:22;5.40;;;3.50;;
41466;SDS011;27205;53.690;19.948;2022-09-24T16:56:26;8.10;;;4.00;;
41466;SDS011;27205;53.690;19.948;2022-09-24T17:01:30;6.20;;;5.80;;
41466;SDS011;27205;53.690;19.948;2022-09-24T17:06:34;6.10;;;5.60;;
41466;SDS011;27205;53.690;19.948;2022-09-24T17:11:38;10.40;;;9.20;;
41466;SDS011;27205;53.690;19.948;2022-09-24T17:16:42;12.60;;;11.50;;
41466;SDS011;27205;53.690;19.948;2022-09-24T17:21:46;12.70;;;11.60;;
41466;SDS011;27205;53.690;19.948;2022-09-24T17:26:54;14.20;;;12.80;;
41466;SDS011;27205;53.690;19.948;2022-09-24T17:31:58;12.80;;;11.70;;
41466;SDS011;27205;53.690;19.948;2022-09-24T17:37:01;15.50;;;14.10;;
41466;SDS011;27205;53.690;19.948;2022-09-24T17:42:04;22.80;;;14.50;;
41466;SDS011;27205;53.690;19.948;2022-09-24T17:47:09;18.30;;;14.80;;
41466;SDS011;27205;53.690;19.948;2022-09-24T17:52:13;15.40;;;13.90;;
41466;SDS011;27205;53.690;19.948;2022-09-24T17:57:17;17.00;;;15.30;;
41466;SDS011;27205;53.690;19.948;2022-09-24T18:02:25;18.00;;;16.10;;
41466;SDS011;27205;53.690;19.948;2022-09-24T18:07:29;21.60;;;19.80;;
41466;SDS011;27205;53.690;19.948;2022-09-24T18:12:33;20.50;;;18.90;;
41466;SDS011;27205;53.690;19.948;2022-09-24T18:17:36;24.30;;;22.20;;
41466;SDS011;27205;53.690;19.948;2022-09-24T18:22:42;23.00;;;21.00;;
41466;SDS011;27205;53.690;19.948;2022-09-24T18:27:45;23.10;;;21.10;;
41466;SDS011;27205;53.690;19.948;2022-09-24T18:32:48;22.50;;;20.60;;
41466;SDS011;27205;53.690;19.948;2022-09-24T18:37:55;21.30;;;19.30;;
41466;SDS011;27205;53.690;19.948;2022-09-24T18:42:59;19.20;;;17.60;;
41466;SDS011;27205;53.690;19.948;2022-09-24T18:48:02;17.20;;;14.80;;
41466;SDS011;27205;53.690;19.948;2022-09-24T18:53:07;19.60;;;17.90;;
41466;SDS011;27205;53.690;19.948;2022-09-24T18:58:13;23.40;;;20.90;;
41466;SDS011;27205;53.690;19.948;2022-09-24T19:03:16;22.00;;;19.50;;
41466;SDS011;27205;53.690;19.948;2022-09-24T19:08:21;20.70;;;18.90;;
41466;SDS011;27205;53.690;19.948;2022-09-24T19:13:26;16.40;;;15.00;;
41466;SDS011;27205;53.690;19.948;2022-09-24T19:18:29;16.90;;;15.30;;
41466;SDS011;27205;53.690;19.948;2022-09-24T19:23:40;16.90;;;15.40;;
41466;SDS011;27205;53.690;19.948;2022-09-24T19:28:47;17.80;;;16.20;;
41466;SDS011;27205;53.690;19.948;2022-09-24T19:33:54;14.30;;;12.90;;
41466;SDS011;27205;53.690;19.948;2022-09-24T19:38:59;12.50;;;11.40;;
41466;SDS011;27205;53.690;19.948;2022-09-24T19:44:03;11.50;;;10.40;;
41466;SDS011;27205;53.690;19.948;2022-09-24T19:49:11;12.10;;;11.00;;
41466;SDS011;27205;53.690;19.948;2022-09-24T19:54:14;14.10;;;13.00;;
41466;SDS011;27205;53.690;19.948;2022-09-24T19:59:17;15.00;;;13.70;;
41466;SDS011;27205;53.690;19.948;2022-09-24T20:04:20;11.80;;;10.60;;
41466;SDS011;27205;53.690;19.948;2022-09-24T20:09:25;11.70;;;9.90;;
41466;SDS011;27205;53.690;19.948;2022-09-24T20:14:29;12.10;;;11.00;;
41466;SDS011;27205;53.690;19.948;2022-09-24T20:19:36;14.20;;;12.90;;
41466;SDS011;27205;53.690;19.948;2022-09-24T20:24:40;15.10;;;13.60;;
41466;SDS011;27205;53.690;19.948;2022-09-24T20:29:43;11.90;;;11.00;;
41466;SDS011;27205;53.690;19.948;2022-09-24T20:34:50;9.90;;;9.00;;
41466;SDS011;27205;53.690;19.948;2022-09-24T20:39:53;10.70;;;9.70;;
41466;SDS011;27205;53.690;19.948;2022-09-24T20:44:57;10.10;;;9.30;;
41466;SDS011;27205;53.690;19.948;2022-09-24T20:50:07;10.90;;;10.00;;
41466;SDS011;27205;53.690;19.948;2022-09-24T20:55:12;9.40;;;8.30;;
41466;SDS011;27205;53.690;19.948;2022-09-24T21:00:17;9.80;;;9.00;;
41466;SDS011;27205;53.690;19.948;2022-09-24T21:05:21;9.60;;;8.80;;
41466;SDS011;27205;53.690;19.948;2022-09-24T21:10:24;8.00;;;7.30;;
41466;SDS011;27205;53.690;19.948;2022-09-24T21:15:27;8.20;;;7.60;;
41466;SDS011;27205;53.690;19.948;2022-09-24T21:20:31;9.20;;;8.20;;
41466;SDS011;27205;53.690;19.948;2022-09-24T21:41:08;8.30;;;7.60;;
41466;SDS011;27205;53.690;19.948;2022-09-24T21:46:12;7.10;;;6.50;;
41466;SDS011;27205;53.690;19.948;2022-09-24T21:51:16;7.30;;;6.10;;
41466;SDS011;27205;53.690;19.948;2022-09-24T21:56:23;5.70;;;5.20;;
41466;SDS011;27205;53.690;19.948;2022-09-24T22:01:28;7.20;;;6.40;;
41466;SDS011;27205;53.690;19.948;2022-09-24T22:06:35;6.60;;;6.00;;
41466;SDS011;27205;53.690;19.948;2022-09-24T22:11:38;7.20;;;6.60;;
41466;SDS011;27205;53.690;19.948;2022-09-24T22:16:42;7.70;;;7.00;;
41466;SDS011;27205;53.690;19.948;2022-09-24T22:21:46;7.80;;;7.10;;
41466;SDS011;27205;53.690;19.948;2022-09-24T22:26:49;6.40;;;5.90;;
41466;SDS011;27205;53.690;19.948;2022-09-24T22:31:52;7.80;;;7.00;;
41466;SDS011;27205;53.690;19.948;2022-09-24T22:36:56;7.60;;;7.00;;
41466;SDS011;27205;53.690;19.948;2022-09-24T22:41:59;9.40;;;8.50;;
41466;SDS011;27205;53.690;19.948;2022-09-24T22:47:03;9.80;;;8.00;;
41466;SDS011;27205;53.690;19.948;2022-09-24T22:52:07;7.30;;;6.70;;
41466;SDS011;27205;53.690;19.948;2022-09-24T22:57:10;6.80;;;6.30;;
41466;SDS011;27205;53.690;19.948;2022-09-24T23:02:13;8.10;;;7.50;;
41466;SDS011;27205;53.690;19.948;2022-09-24T23:07:17;8.60;;;7.90;;
41466;SDS011;27205;53.690;19.948;2022-09-24T23:12:20;6.30;;;5.80;;
41466;SDS011;27205;53.690;19.948;2022-09-24T23:17:23;7.80;;;7.10;;
41466;SDS011;27205;53.690;19.948;2022-09-24T23:22:27;8.90;;;7.00;;
41466;SDS011;27205;53.690;19.948;2022-09-24T23:27:31;7.70;;;7.00;;
41466;SDS011;27205;53.690;19.948;2022-09-24T23:32:34;8.10;;;7.30;;
41466;SDS011;27205;53.690;19.948;2022-09-24T23:37:38;9.10;;;8.30;;
41466;SDS011;27205;53.690;19.948;2022-09-24T23:42:41;9.20;;;8.30;;
41466;SDS011;27205;53.690;19.948;2022-09-24T23:47:44;7.80;;;7.20;;
41466;SDS011;27205;53.690;19.948;2022-09-24T23:52:48;7.90;;;7.20;;
41466;SDS011;27205;53.690;19.948;2022-09-24T23:57:51;11.40;;;8.80;;
